sensor_id;sensor_type;location;lat;lon;timestamp;P1;durP1;ratioP1;P2;durP2;ratioP2
21420;SDS011;10871;50.144;8.428;2024-01-15T00:01:58;27.63;;;10.88;;
21420;SDS011;10871;50.144;8.428;2024-01-15T00:04:24;29.05;;;10.13;;
21420;SDS011;10871;50.144;8.428;2024-01-15T00:06:51;24.42;;;10.50;;
21420;SDS011;10871;50.144;8.428;2024-01-15T00:09:20;29.08;;;10.82;;
21420;SDS011;10871;50.144;8.428;2024-01-15T00:11:47;28.73;;;10.40;;
21420;SDS011;10871;50.144;8.428;2024-01-15T00:14:13;26.23;;;10.82;;
21420;SDS011;10871;50.144;8.428;2024-01-15T00:16:41;27.67;;;10.60;;
21420;SDS011;10871;50.144;8.428;2024-01-15T00:19:08;25.92;;;10.23;;
21420;SDS011;10871;50.144;8.428;2024-01-15T00:21:35;30.75;;;11.25;;
21420;SDS011;10871;50.144;8.428;2024-01-15T00:24:01;27.48;;;10.57;;
21420;SDS011;10871;50.144;8.428;2024-01-15T00:26:28;31.38;;;11.35;;
21420;SDS011;10871;50.144;8.428;2024-01-15T00:28:54;25.30;;;9.95;;
21420;SDS011;10871;50.144;8.428;2024-01-15T00:31:21;26.58;;;10.90;;
21420;SDS011;10871;50.144;8.428;2024-01-15T00:33:48;27.67;;;10.40;;
21420;SDS011;10871;50.144;8.428;2024-01-15T00:36:15;29.95;;;11.02;;
21420;SDS011;10871;50.144;8.428;2024-01-15T00:38:46;28.90;;;10.30;;
21420;SDS011;10871;50.144;8.428;2024-01-15T00:41:14;28.60;;;10.70;;
21420;SDS011;10871;50.144;8.428;2024-01-15T00:43:40;29.05;;;11.20;;
21420;SDS011;10871;50.144;8.428;2024-01-15T00:46:07;32.42;;;12.05;;
21420;SDS011;10871;50.144;8.428;2024-01-15T00:48:34;30.23;;;10.80;;
21420;SDS011;10871;50.144;8.428;2024-01-15T00:51:01;28.45;;;11.40;;
21420;SDS011;10871;50.144;8.428;2024-01-15T00:53:27;26.52;;;10.32;;
21420;SDS011;10871;50.144;8.428;2024-01-15T00:55:54;32.45;;;11.13;;
21420;SDS011;10871;50.144;8.428;2024-01-15T00:58:20;27.38;;;11.10;;
21420;SDS011;10871;50.144;8.428;2024-01-15T01:00:47;28.92;;;10.50;;
21420;SDS011;10871;50.144;8.428;2024-01-15T01:03:13;31.20;;;11.93;;
21420;SDS011;10871;50.144;8.428;2024-01-15T01:05:40;29.10;;;11.52;;
21420;SDS011;10871;50.144;8.428;2024-01-15T01:08:06;30.13;;;11.80;;
21420;SDS011;10871;50.144;8.428;2024-01-15T01:10:33;29.50;;;11.60;;
21420;SDS011;10871;50.144;8.428;2024-01-15T01:13:00;34.05;;;12.77;;
21420;SDS011;10871;50.144;8.428;2024-01-15T01:15:26;29.08;;;12.00;;
21420;SDS011;10871;50.144;8.428;2024-01-15T01:17:53;28.75;;;10.75;;
21420;SDS011;10871;50.144;8.428;2024-01-15T01:20:20;30.52;;;12.00;;
21420;SDS011;10871;50.144;8.428;2024-01-15T01:22:47;37.50;;;12.07;;
21420;SDS011;10871;50.144;8.428;2024-01-15T01:25:13;32.42;;;12.57;;
21420;SDS011;10871;50.144;8.428;2024-01-15T01:27:42;32.17;;;11.27;;
21420;SDS011;10871;50.144;8.428;2024-01-15T01:30:09;33.70;;;12.15;;
21420;SDS011;10871;50.144;8.428;2024-01-15T01:32:36;30.90;;;11.80;;
21420;SDS011;10871;50.144;8.428;2024-01-15T01:35:02;29.52;;;11.95;;
21420;SDS011;10871;50.144;8.428;2024-01-15T01:37:29;29.95;;;11.40;;
21420;SDS011;10871;50.144;8.428;2024-01-15T01:39:55;32.40;;;11.60;;
21420;SDS011;10871;50.144;8.428;2024-01-15T01:42:22;31.00;;;11.95;;
21420;SDS011;10871;50.144;8.428;2024-01-15T01:44:48;29.05;;;12.40;;
21420;SDS011;10871;50.144;8.428;2024-01-15T01:47:15;32.40;;;11.90;;
21420;SDS011;10871;50.144;8.428;2024-01-15T01:49:41;34.67;;;12.18;;
21420;SDS011;10871;50.144;8.428;2024-01-15T01:52:08;29.30;;;12.27;;
21420;SDS011;10871;50.144;8.428;2024-01-15T01:54:35;32.28;;;11.50;;
21420;SDS011;10871;50.144;8.428;2024-01-15T01:57:03;27.42;;;11.82;;
21420;SDS011;10871;50.144;8.428;2024-01-15T01:59:32;32.75;;;11.68;;
21420;SDS011;10871;50.144;8.428;2024-01-15T02:02:00;27.92;;;11.45;;
21420;SDS011;10871;50.144;8.428;2024-01-15T02:04:27;30.73;;;12.15;;
21420;SDS011;10871;50.144;8.428;2024-01-15T02:06:54;32.33;;;11.52;;
21420;SDS011;10871;50.144;8.428;2024-01-15T02:09:21;34.08;;;11.50;;
21420;SDS011;10871;50.144;8.428;2024-01-15T02:11:47;32.00;;;11.38;;
21420;SDS011;10871;50.144;8.428;2024-01-15T02:14:14;30.35;;;11.35;;
21420;SDS011;10871;50.144;8.428;2024-01-15T02:16:41;28.63;;;11.40;;
21420;SDS011;10871;50.144;8.428;2024-01-15T02:19:07;29.00;;;11.70;;
21420;SDS011;10871;50.144;8.428;2024-01-15T02:21:34;31.35;;;11.73;;
21420;SDS011;10871;50.144;8.428;2024-01-15T02:24:00;31.40;;;11.98;;
21420;SDS011;10871;50.144;8.428;2024-01-15T02:26:27;28.13;;;11.93;;
21420;SDS011;10871;50.144;8.428;2024-01-15T02:28:53;26.38;;;10.55;;
21420;SDS011;10871;50.144;8.428;2024-01-15T02:31:20;30.02;;;11.25;;
21420;SDS011;10871;50.144;8.428;2024-01-15T02:33:47;28.52;;;10.95;;
21420;SDS011;10871;50.144;8.428;2024-01-15T02:36:14;28.60;;;11.18;;
21420;SDS011;10871;50.144;8.428;2024-01-15T02:38:42;33.08;;;11.77;;
21420;SDS011;10871;50.144;8.428;2024-01-15T02:41:08;33.30;;;11.85;;
21420;SDS011;10871;50.144;8.428;2024-01-15T02:43:35;31.85;;;11.05;;
21420;SDS011;10871;50.144;8.428;2024-01-15T02:46:01;34.28;;;11.32;;
21420;SDS011;10871;50.144;8.428;2024-01-15T02:48:28;28.63;;;11.63;;
21420;SDS011;10871;50.144;8.428;2024-01-15T02:50:55;33.05;;;11.38;;
21420;SDS011;10871;50.144;8.428;2024-01-15T02:53:21;28.05;;;11.05;;
21420;SDS011;10871;50.144;8.428;2024-01-15T02:55:48;29.92;;;10.98;;
21420;SDS011;10871;50.144;8.428;2024-01-15T02:58:14;33.55;;;12.23;;
21420;SDS011;10871;50.144;8.428;2024-01-15T03:00:41;27.10;;;10.63;;
21420;SDS011;10871;50.144;8.428;2024-01-15T03:03:09;31.05;;;11.98;;
21420;SDS011;10871;50.144;8.428;2024-01-15T03:05:35;30.70;;;11.38;;
21420;SDS011;10871;50.144;8.428;2024-01-15T03:08:02;31.15;;;11.63;;
21420;SDS011;10871;50.144;8.428;2024-01-15T03:10:28;30.85;;;11.25;;
21420;SDS011;10871;50.144;8.428;2024-01-15T03:12:55;32.33;;;11.57;;
21420;SDS011;10871;50.144;8.428;2024-01-15T03:15:21;29.20;;;11.40;;
21420;SDS011;10871;50.144;8.428;2024-01-15T03:17:48;32.88;;;11.63;;
21420;SDS011;10871;50.144;8.428;2024-01-15T03:20:14;30.80;;;11.18;;
21420;SDS011;10871;50.144;8.428;2024-01-15T03:22:41;31.60;;;12.48;;
21420;SDS011;10871;50.144;8.428;2024-01-15T03:25:08;23.80;;;10.77;;
21420;SDS011;10871;50.144;8.428;2024-01-15T03:27:34;31.45;;;11.80;;
21420;SDS011;10871;50.144;8.428;2024-01-15T03:30:01;26.13;;;11.10;;
21420;SDS011;10871;50.144;8.428;2024-01-15T03:32:29;27.27;;;10.80;;
21420;SDS011;10871;50.144;8.428;2024-01-15T03:34:55;27.23;;;10.75;;
21420;SDS011;10871;50.144;8.428;2024-01-15T03:37:22;30.50;;;10.85;;
21420;SDS011;10871;50.144;8.428;2024-01-15T03:39:48;27.85;;;10.63;;
21420;SDS011;10871;50.144;8.428;2024-01-15T03:42:15;36.22;;;12.27;;
21420;SDS011;10871;50.144;8.428;2024-01-15T03:44:42;38.25;;;11.52;;
21420;SDS011;10871;50.144;8.428;2024-01-15T03:47:08;26.13;;;11.60;;
21420;SDS011;10871;50.144;8.428;2024-01-15T03:49:35;29.20;;;11.23;;
21420;SDS011;10871;50.144;8.428;2024-01-15T03:52:02;26.13;;;10.48;;
21420;SDS011;10871;50.144;8.428;2024-01-15T03:54:28;28.50;;;10.82;;
21420;SDS011;10871;50.144;8.428;2024-01-15T03:56:55;28.85;;;11.57;;
21420;SDS011;10871;50.144;8.428;2024-01-15T03:59:21;29.17;;;11.70;;
21420;SDS011;10871;50.144;8.428;2024-01-15T04:01:48;30.38;;;11.32;;
21420;SDS011;10871;50.144;8.428;2024-01-15T04:04:16;29.13;;;11.55;;
21420;SDS011;10871;50.144;8.428;2024-01-15T04:06:43;27.08;;;10.80;;
21420;SDS011;10871;50.144;8.428;2024-01-15T04:09:11;28.90;;;10.90;;
21420;SDS011;10871;50.144;8.428;2024-01-15T04:11:37;23.58;;;10.73;;
21420;SDS011;10871;50.144;8.428;2024-01-15T04:14:04;28.77;;;10.98;;
21420;SDS011;10871;50.144;8.428;2024-01-15T04:16:30;27.20;;;10.82;;
21420;SDS011;10871;50.144;8.428;2024-01-15T04:18:57;31.38;;;10.50;;
21420;SDS011;10871;50.144;8.428;2024-01-15T04:21:24;26.05;;;10.88;;
21420;SDS011;10871;50.144;8.428;2024-01-15T04:23:51;28.25;;;10.93;;
21420;SDS011;10871;50.144;8.428;2024-01-15T04:26:17;26.92;;;10.77;;
21420;SDS011;10871;50.144;8.428;2024-01-15T04:28:44;25.80;;;11.18;;
21420;SDS011;10871;50.144;8.428;2024-01-15T04:31:20;26.75;;;10.18;;
21420;SDS011;10871;50.144;8.428;2024-01-15T04:33:47;28.80;;;10.52;;
21420;SDS011;10871;50.144;8.428;2024-01-15T04:36:14;25.85;;;10.23;;
21420;SDS011;10871;50.144;8.428;2024-01-15T04:38:40;30.15;;;10.25;;
21420;SDS011;10871;50.144;8.428;2024-01-15T04:41:10;26.02;;;10.20;;
21420;SDS011;10871;50.144;8.428;2024-01-15T04:43:36;28.23;;;10.52;;
21420;SDS011;10871;50.144;8.428;2024-01-15T04:46:03;30.65;;;11.20;;
21420;SDS011;10871;50.144;8.428;2024-01-15T04:48:31;25.60;;;10.52;;
21420;SDS011;10871;50.144;8.428;2024-01-15T04:50:58;24.08;;;10.57;;
21420;SDS011;10871;50.144;8.428;2024-01-15T04:53:24;29.60;;;9.95;;
21420;SDS011;10871;50.144;8.428;2024-01-15T04:55:51;27.60;;;10.15;;
21420;SDS011;10871;50.144;8.428;2024-01-15T04:58:17;27.15;;;11.20;;
21420;SDS011;10871;50.144;8.428;2024-01-15T05:00:43;29.83;;;10.23;;
21420;SDS011;10871;50.144;8.428;2024-01-15T05:03:10;24.85;;;10.23;;
21420;SDS011;10871;50.144;8.428;2024-01-15T05:05:37;28.27;;;10.60;;
21420;SDS011;10871;50.144;8.428;2024-01-15T05:08:03;23.35;;;9.40;;
21420;SDS011;10871;50.144;8.428;2024-01-15T05:10:30;31.23;;;10.80;;
21420;SDS011;10871;50.144;8.428;2024-01-15T05:12:57;28.30;;;10.15;;
21420;SDS011;10871;50.144;8.428;2024-01-15T05:15:23;25.75;;;10.70;;
21420;SDS011;10871;50.144;8.428;2024-01-15T05:17:50;26.40;;;10.55;;
21420;SDS011;10871;50.144;8.428;2024-01-15T05:20:16;26.70;;;10.68;;
21420;SDS011;10871;50.144;8.428;2024-01-15T05:22:43;23.85;;;10.50;;
21420;SDS011;10871;50.144;8.428;2024-01-15T05:25:10;26.70;;;10.68;;
21420;SDS011;10871;50.144;8.428;2024-01-15T05:27:36;23.27;;;9.95;;
21420;SDS011;10871;50.144;8.428;2024-01-15T05:30:05;29.55;;;11.23;;
21420;SDS011;10871;50.144;8.428;2024-01-15T05:32:32;27.25;;;10.43;;
21420;SDS011;10871;50.144;8.428;2024-01-15T05:34:59;26.27;;;10.20;;
21420;SDS011;10871;50.144;8.428;2024-01-15T05:37:25;28.45;;;10.70;;
21420;SDS011;10871;50.144;8.428;2024-01-15T05:39:52;27.95;;;10.60;;
21420;SDS011;10871;50.144;8.428;2024-01-15T05:42:19;24.33;;;10.48;;
21420;SDS011;10871;50.144;8.428;2024-01-15T05:44:46;26.05;;;10.48;;
21420;SDS011;10871;50.144;8.428;2024-01-15T05:47:12;27.55;;;9.98;;
21420;SDS011;10871;50.144;8.428;2024-01-15T05:49:39;27.20;;;10.40;;
21420;SDS011;10871;50.144;8.428;2024-01-15T05:52:05;33.38;;;10.77;;
21420;SDS011;10871;50.144;8.428;2024-01-15T05:54:32;28.48;;;10.85;;
21420;SDS011;10871;50.144;8.428;2024-01-15T05:56:58;30.65;;;10.93;;
21420;SDS011;10871;50.144;8.428;2024-01-15T05:59:25;30.35;;;11.68;;
21420;SDS011;10871;50.144;8.428;2024-01-15T06:01:52;29.38;;;11.05;;
21420;SDS011;10871;50.144;8.428;2024-01-15T06:04:18;29.75;;;11.27;;
21420;SDS011;10871;50.144;8.428;2024-01-15T06:06:45;24.52;;;10.32;;
21420;SDS011;10871;50.144;8.428;2024-01-15T06:09:12;28.58;;;10.73;;
21420;SDS011;10871;50.144;8.428;2024-01-15T06:11:38;28.55;;;10.90;;
21420;SDS011;10871;50.144;8.428;2024-01-15T06:14:05;28.13;;;10.82;;
21420;SDS011;10871;50.144;8.428;2024-01-15T06:16:32;25.50;;;10.25;;
21420;SDS011;10871;50.144;8.428;2024-01-15T06:18:59;28.48;;;10.68;;
21420;SDS011;10871;50.144;8.428;2024-01-15T06:21:25;27.42;;;11.15;;
21420;SDS011;10871;50.144;8.428;2024-01-15T06:23:52;26.60;;;10.23;;
21420;SDS011;10871;50.144;8.428;2024-01-15T06:26:18;26.35;;;10.43;;
21420;SDS011;10871;50.144;8.428;2024-01-15T06:28:45;26.80;;;10.55;;
21420;SDS011;10871;50.144;8.428;2024-01-15T06:31:12;26.35;;;10.65;;
21420;SDS011;10871;50.144;8.428;2024-01-15T06:33:39;28.85;;;10.90;;
21420;SDS011;10871;50.144;8.428;2024-01-15T06:36:06;26.15;;;11.13;;
21420;SDS011;10871;50.144;8.428;2024-01-15T06:38:33;24.60;;;10.18;;
21420;SDS011;10871;50.144;8.428;2024-01-15T06:40:59;27.35;;;10.60;;
21420;SDS011;10871;50.144;8.428;2024-01-15T06:43:26;29.48;;;10.65;;
21420;SDS011;10871;50.144;8.428;2024-01-15T06:45:53;31.08;;;11.40;;
21420;SDS011;10871;50.144;8.428;2024-01-15T06:48:19;26.17;;;11.55;;
21420;SDS011;10871;50.144;8.428;2024-01-15T06:50:46;25.13;;;11.27;;
21420;SDS011;10871;50.144;8.428;2024-01-15T06:53:12;29.33;;;11.70;;
21420;SDS011;10871;50.144;8.428;2024-01-15T06:55:39;35.08;;;11.30;;
21420;SDS011;10871;50.144;8.428;2024-01-15T06:58:05;28.85;;;10.82;;
21420;SDS011;10871;50.144;8.428;2024-01-15T07:00:32;29.15;;;11.40;;
21420;SDS011;10871;50.144;8.428;2024-01-15T07:02:58;27.25;;;11.40;;
21420;SDS011;10871;50.144;8.428;2024-01-15T07:05:25;32.92;;;12.05;;
21420;SDS011;10871;50.144;8.428;2024-01-15T07:07:52;25.90;;;11.10;;
21420;SDS011;10871;50.144;8.428;2024-01-15T07:10:18;29.20;;;12.52;;
21420;SDS011;10871;50.144;8.428;2024-01-15T07:12:45;27.13;;;11.02;;
21420;SDS011;10871;50.144;8.428;2024-01-15T07:15:11;28.20;;;11.30;;
21420;SDS011;10871;50.144;8.428;2024-01-15T07:17:38;27.50;;;11.68;;
21420;SDS011;10871;50.144;8.428;2024-01-15T07:20:06;34.70;;;12.10;;
21420;SDS011;10871;50.144;8.428;2024-01-15T07:22:35;26.63;;;10.38;;
21420;SDS011;10871;50.144;8.428;2024-01-15T07:25:01;31.63;;;12.30;;
21420;SDS011;10871;50.144;8.428;2024-01-15T07:27:28;29.73;;;12.05;;
21420;SDS011;10871;50.144;8.428;2024-01-15T07:29:55;30.45;;;12.27;;
21420;SDS011;10871;50.144;8.428;2024-01-15T07:32:26;33.65;;;12.73;;
21420;SDS011;10871;50.144;8.428;2024-01-15T07:34:52;26.35;;;12.18;;
21420;SDS011;10871;50.144;8.428;2024-01-15T07:37:19;27.83;;;10.95;;
21420;SDS011;10871;50.144;8.428;2024-01-15T07:39:45;29.35;;;11.10;;
21420;SDS011;10871;50.144;8.428;2024-01-15T07:42:12;34.28;;;11.98;;
21420;SDS011;10871;50.144;8.428;2024-01-15T07:44:39;26.33;;;11.45;;
21420;SDS011;10871;50.144;8.428;2024-01-15T07:47:05;27.00;;;12.00;;
21420;SDS011;10871;50.144;8.428;2024-01-15T07:49:32;29.60;;;11.85;;
21420;SDS011;10871;50.144;8.428;2024-01-15T07:51:59;34.78;;;12.30;;
21420;SDS011;10871;50.144;8.428;2024-01-15T07:54:25;29.05;;;12.35;;
21420;SDS011;10871;50.144;8.428;2024-01-15T07:57:01;30.77;;;12.38;;
21420;SDS011;10871;50.144;8.428;2024-01-15T07:59:29;33.45;;;12.43;;
21420;SDS011;10871;50.144;8.428;2024-01-15T08:01:56;27.83;;;11.57;;
21420;SDS011;10871;50.144;8.428;2024-01-15T08:04:22;28.40;;;11.82;;
21420;SDS011;10871;50.144;8.428;2024-01-15T08:06:49;34.13;;;12.30;;
21420;SDS011;10871;50.144;8.428;2024-01-15T08:09:16;25.88;;;11.05;;
21420;SDS011;10871;50.144;8.428;2024-01-15T08:11:42;24.95;;;10.70;;
21420;SDS011;10871;50.144;8.428;2024-01-15T08:14:09;27.90;;;12.00;;
21420;SDS011;10871;50.144;8.428;2024-01-15T08:16:36;24.20;;;11.02;;
21420;SDS011;10871;50.144;8.428;2024-01-15T08:19:03;26.75;;;11.15;;
21420;SDS011;10871;50.144;8.428;2024-01-15T08:21:30;25.08;;;10.55;;
21420;SDS011;10871;50.144;8.428;2024-01-15T08:23:58;29.25;;;11.73;;
21420;SDS011;10871;50.144;8.428;2024-01-15T08:26:25;29.33;;;11.70;;
21420;SDS011;10871;50.144;8.428;2024-01-15T08:28:51;26.17;;;10.93;;
21420;SDS011;10871;50.144;8.428;2024-01-15T08:31:18;24.05;;;11.18;;
21420;SDS011;10871;50.144;8.428;2024-01-15T08:33:44;32.60;;;11.55;;
21420;SDS011;10871;50.144;8.428;2024-01-15T08:36:11;30.52;;;12.02;;
21420;SDS011;10871;50.144;8.428;2024-01-15T08:38:38;25.60;;;11.40;;
21420;SDS011;10871;50.144;8.428;2024-01-15T08:41:04;27.85;;;11.30;;
21420;SDS011;10871;50.144;8.428;2024-01-15T08:43:31;25.48;;;10.63;;
21420;SDS011;10871;50.144;8.428;2024-01-15T08:45:57;26.80;;;11.00;;
21420;SDS011;10871;50.144;8.428;2024-01-15T08:48:24;24.55;;;10.73;;
21420;SDS011;10871;50.144;8.428;2024-01-15T08:50:54;29.48;;;10.77;;
21420;SDS011;10871;50.144;8.428;2024-01-15T08:53:21;26.33;;;10.50;;
21420;SDS011;10871;50.144;8.428;2024-01-15T08:55:47;27.60;;;10.60;;
21420;SDS011;10871;50.144;8.428;2024-01-15T08:58:14;24.90;;;11.30;;
21420;SDS011;10871;50.144;8.428;2024-01-15T09:00:40;27.30;;;11.95;;
21420;SDS011;10871;50.144;8.428;2024-01-15T09:03:07;23.52;;;11.23;;
21420;SDS011;10871;50.144;8.428;2024-01-15T09:05:36;25.13;;;10.82;;
21420;SDS011;10871;50.144;8.428;2024-01-15T09:08:03;23.35;;;10.05;;
21420;SDS011;10871;50.144;8.428;2024-01-15T09:10:30;22.10;;;10.23;;
21420;SDS011;10871;50.144;8.428;2024-01-15T09:12:56;24.90;;;10.63;;
21420;SDS011;10871;50.144;8.428;2024-01-15T09:15:23;24.48;;;10.55;;
21420;SDS011;10871;50.144;8.428;2024-01-15T09:17:50;20.83;;;9.90;;
21420;SDS011;10871;50.144;8.428;2024-01-15T09:20:17;19.50;;;9.55;;
21420;SDS011;10871;50.144;8.428;2024-01-15T09:22:44;23.30;;;10.27;;
21420;SDS011;10871;50.144;8.428;2024-01-15T09:25:12;26.05;;;10.68;;
21420;SDS011;10871;50.144;8.428;2024-01-15T09:27:38;24.73;;;10.38;;
21420;SDS011;10871;50.144;8.428;2024-01-15T09:30:05;25.08;;;9.93;;
21420;SDS011;10871;50.144;8.428;2024-01-15T09:32:33;20.35;;;9.95;;
21420;SDS011;10871;50.144;8.428;2024-01-15T09:34:59;20.27;;;9.55;;
21420;SDS011;10871;50.144;8.428;2024-01-15T09:37:26;20.17;;;9.75;;
21420;SDS011;10871;50.144;8.428;2024-01-15T09:40:12;21.77;;;9.50;;
21420;SDS011;10871;50.144;8.428;2024-01-15T09:42:40;23.88;;;11.40;;
21420;SDS011;10871;50.144;8.428;2024-01-15T09:45:07;23.50;;;10.10;;
21420;SDS011;10871;50.144;8.428;2024-01-15T09:47:34;21.38;;;9.73;;
21420;SDS011;10871;50.144;8.428;2024-01-15T09:50:00;22.67;;;10.57;;
21420;SDS011;10871;50.144;8.428;2024-01-15T09:52:30;20.88;;;9.98;;
21420;SDS011;10871;50.144;8.428;2024-01-15T09:54:58;19.65;;;9.23;;
21420;SDS011;10871;50.144;8.428;2024-01-15T09:57:25;21.48;;;10.20;;
21420;SDS011;10871;50.144;8.428;2024-01-15T09:59:52;22.73;;;9.98;;
21420;SDS011;10871;50.144;8.428;2024-01-15T10:02:20;21.15;;;10.20;;
21420;SDS011;10871;50.144;8.428;2024-01-15T10:04:47;19.65;;;9.52;;
21420;SDS011;10871;50.144;8.428;2024-01-15T10:07:15;20.58;;;10.15;;
21420;SDS011;10871;50.144;8.428;2024-01-15T10:09:43;17.15;;;9.07;;
21420;SDS011;10871;50.144;8.428;2024-01-15T10:12:10;21.10;;;9.45;;
21420;SDS011;10871;50.144;8.428;2024-01-15T10:14:36;19.27;;;9.23;;
21420;SDS011;10871;50.144;8.428;2024-01-15T10:17:13;21.42;;;9.82;;
21420;SDS011;10871;50.144;8.428;2024-01-15T10:19:41;23.00;;;9.93;;
21420;SDS011;10871;50.144;8.428;2024-01-15T10:22:15;18.83;;;8.80;;
21420;SDS011;10871;50.144;8.428;2024-01-15T10:24:42;21.60;;;10.10;;
21420;SDS011;10871;50.144;8.428;2024-01-15T10:27:09;20.55;;;9.90;;
21420;SDS011;10871;50.144;8.428;2024-01-15T10:29:37;19.98;;;9.75;;
21420;SDS011;10871;50.144;8.428;2024-01-15T10:32:07;21.23;;;9.85;;
21420;SDS011;10871;50.144;8.428;2024-01-15T10:34:40;22.30;;;9.82;;
21420;SDS011;10871;50.144;8.428;2024-01-15T10:37:08;21.40;;;9.82;;
21420;SDS011;10871;50.144;8.428;2024-01-15T10:39:35;20.60;;;10.02;;
21420;SDS011;10871;50.144;8.428;2024-01-15T10:42:03;21.23;;;9.80;;
21420;SDS011;10871;50.144;8.428;2024-01-15T10:44:29;18.88;;;8.88;;
21420;SDS011;10871;50.144;8.428;2024-01-15T10:46:56;15.73;;;8.23;;
21420;SDS011;10871;50.144;8.428;2024-01-15T10:49:23;18.92;;;8.90;;
21420;SDS011;10871;50.144;8.428;2024-01-15T10:51:58;19.20;;;9.00;;
21420;SDS011;10871;50.144;8.428;2024-01-15T10:54:24;19.02;;;9.40;;
21420;SDS011;10871;50.144;8.428;2024-01-15T10:56:53;19.98;;;9.07;;
21420;SDS011;10871;50.144;8.428;2024-01-15T10:59:20;19.33;;;8.90;;
21420;SDS011;10871;50.144;8.428;2024-01-15T11:01:47;16.70;;;8.63;;
21420;SDS011;10871;50.144;8.428;2024-01-15T11:04:15;16.00;;;8.40;;
21420;SDS011;10871;50.144;8.428;2024-01-15T11:06:44;16.85;;;8.70;;
21420;SDS011;10871;50.144;8.428;2024-01-15T11:09:11;16.05;;;8.77;;
21420;SDS011;10871;50.144;8.428;2024-01-15T11:11:41;16.63;;;8.73;;
21420;SDS011;10871;50.144;8.428;2024-01-15T11:14:09;14.30;;;7.85;;
21420;SDS011;10871;50.144;8.428;2024-01-15T11:17:10;15.38;;;8.35;;
21420;SDS011;10871;50.144;8.428;2024-01-15T11:22:11;20.20;;;9.27;;
21420;SDS011;10871;50.144;8.428;2024-01-15T11:24:57;16.63;;;8.25;;
21420;SDS011;10871;50.144;8.428;2024-01-15T11:27:40;16.13;;;8.82;;
21420;SDS011;10871;50.144;8.428;2024-01-15T11:30:07;15.67;;;8.27;;
21420;SDS011;10871;50.144;8.428;2024-01-15T11:32:35;17.08;;;8.80;;
21420;SDS011;10871;50.144;8.428;2024-01-15T11:35:04;15.48;;;8.30;;
21420;SDS011;10871;50.144;8.428;2024-01-15T11:38:06;16.63;;;8.27;;
21420;SDS011;10871;50.144;8.428;2024-01-15T11:43:02;18.23;;;8.90;;
21420;SDS011;10871;50.144;8.428;2024-01-15T11:45:29;17.58;;;8.63;;
21420;SDS011;10871;50.144;8.428;2024-01-15T11:50:23;13.73;;;7.45;;
21420;SDS011;10871;50.144;8.428;2024-01-15T11:52:57;11.93;;;7.65;;
21420;SDS011;10871;50.144;8.428;2024-01-15T11:55:31;15.32;;;7.93;;
21420;SDS011;10871;50.144;8.428;2024-01-15T11:58:00;14.07;;;8.05;;
21420;SDS011;10871;50.144;8.428;2024-01-15T12:00:27;15.27;;;7.78;;
21420;SDS011;10871;50.144;8.428;2024-01-15T12:02:54;16.33;;;8.00;;
21420;SDS011;10871;50.144;8.428;2024-01-15T12:05:22;15.45;;;8.02;;
21420;SDS011;10871;50.144;8.428;2024-01-15T12:07:49;17.35;;;7.95;;
21420;SDS011;10871;50.144;8.428;2024-01-15T12:10:17;13.02;;;6.90;;
21420;SDS011;10871;50.144;8.428;2024-01-15T12:12:58;13.40;;;6.75;;
21420;SDS011;10871;50.144;8.428;2024-01-15T12:15:26;16.65;;;6.82;;
21420;SDS011;10871;50.144;8.428;2024-01-15T12:17:54;10.98;;;6.28;;
21420;SDS011;10871;50.144;8.428;2024-01-15T12:20:21;10.38;;;6.28;;
21420;SDS011;10871;50.144;8.428;2024-01-15T12:22:49;14.50;;;7.10;;
21420;SDS011;10871;50.144;8.428;2024-01-15T12:25:28;12.52;;;6.75;;
21420;SDS011;10871;50.144;8.428;2024-01-15T12:27:55;12.75;;;5.95;;
21420;SDS011;10871;50.144;8.428;2024-01-15T12:30:22;12.77;;;6.85;;
21420;SDS011;10871;50.144;8.428;2024-01-15T12:32:49;11.50;;;6.80;;
21420;SDS011;10871;50.144;8.428;2024-01-15T12:35:16;13.38;;;6.28;;
21420;SDS011;10871;50.144;8.428;2024-01-15T12:37:43;11.30;;;5.90;;
21420;SDS011;10871;50.144;8.428;2024-01-15T12:40:10;11.20;;;6.32;;
21420;SDS011;10871;50.144;8.428;2024-01-15T12:42:37;12.55;;;6.30;;
21420;SDS011;10871;50.144;8.428;2024-01-15T12:45:05;10.88;;;5.70;;
21420;SDS011;10871;50.144;8.428;2024-01-15T12:47:32;12.13;;;5.95;;
21420;SDS011;10871;50.144;8.428;2024-01-15T12:49:59;12.73;;;6.57;;
21420;SDS011;10871;50.144;8.428;2024-01-15T12:52:40;13.48;;;6.07;;
21420;SDS011;10871;50.144;8.428;2024-01-15T12:55:08;10.77;;;5.47;;
21420;SDS011;10871;50.144;8.428;2024-01-15T12:57:35;10.73;;;5.43;;
21420;SDS011;10871;50.144;8.428;2024-01-15T13:00:02;11.65;;;5.68;;
21420;SDS011;10871;50.144;8.428;2024-01-15T13:02:33;9.52;;;5.47;;
21420;SDS011;10871;50.144;8.428;2024-01-15T13:05:00;8.85;;;5.30;;
21420;SDS011;10871;50.144;8.428;2024-01-15T13:07:27;10.75;;;5.43;;
21420;SDS011;10871;50.144;8.428;2024-01-15T13:09:54;10.05;;;4.93;;
21420;SDS011;10871;50.144;8.428;2024-01-15T13:12:20;9.75;;;5.05;;
21420;SDS011;10871;50.144;8.428;2024-01-15T13:14:47;8.23;;;5.30;;
21420;SDS011;10871;50.144;8.428;2024-01-15T13:17:14;8.27;;;4.35;;
21420;SDS011;10871;50.144;8.428;2024-01-15T13:19:41;8.75;;;5.30;;
21420;SDS011;10871;50.144;8.428;2024-01-15T13:22:07;10.52;;;5.35;;
21420;SDS011;10871;50.144;8.428;2024-01-15T13:24:35;10.32;;;5.38;;
21420;SDS011;10871;50.144;8.428;2024-01-15T13:27:03;10.05;;;5.00;;
21420;SDS011;10871;50.144;8.428;2024-01-15T13:29:33;10.57;;;5.45;;
21420;SDS011;10871;50.144;8.428;2024-01-15T13:32:00;21.63;;;11.93;;
21420;SDS011;10871;50.144;8.428;2024-01-15T13:34:27;10.55;;;6.03;;
21420;SDS011;10871;50.144;8.428;2024-01-15T13:36:53;11.45;;;6.22;;
21420;SDS011;10871;50.144;8.428;2024-01-15T13:39:20;13.68;;;5.93;;
21420;SDS011;10871;50.144;8.428;2024-01-15T13:41:47;8.85;;;5.32;;
21420;SDS011;10871;50.144;8.428;2024-01-15T13:44:13;7.88;;;4.10;;
21420;SDS011;10871;50.144;8.428;2024-01-15T13:46:40;6.47;;;3.80;;
21420;SDS011;10871;50.144;8.428;2024-01-15T13:49:06;6.40;;;4.10;;
21420;SDS011;10871;50.144;8.428;2024-01-15T13:51:33;6.50;;;3.75;;
21420;SDS011;10871;50.144;8.428;2024-01-15T13:54:01;8.40;;;4.13;;
21420;SDS011;10871;50.144;8.428;2024-01-15T13:56:27;10.13;;;3.85;;
21420;SDS011;10871;50.144;8.428;2024-01-15T13:58:58;7.47;;;4.57;;
21420;SDS011;10871;50.144;8.428;2024-01-15T14:01:27;6.88;;;3.92;;
21420;SDS011;10871;50.144;8.428;2024-01-15T14:03:55;6.43;;;4.28;;
21420;SDS011;10871;50.144;8.428;2024-01-15T14:06:21;8.02;;;3.97;;
21420;SDS011;10871;50.144;8.428;2024-01-15T14:08:48;8.20;;;4.53;;
21420;SDS011;10871;50.144;8.428;2024-01-15T14:11:15;7.10;;;3.70;;
21420;SDS011;10871;50.144;8.428;2024-01-15T14:13:42;8.38;;;3.45;;
21420;SDS011;10871;50.144;8.428;2024-01-15T14:16:08;9.27;;;4.68;;
21420;SDS011;10871;50.144;8.428;2024-01-15T14:18:38;9.13;;;4.20;;
21420;SDS011;10871;50.144;8.428;2024-01-15T14:21:05;6.20;;;4.03;;
21420;SDS011;10871;50.144;8.428;2024-01-15T14:23:32;7.85;;;4.25;;
21420;SDS011;10871;50.144;8.428;2024-01-15T14:26:00;8.43;;;3.90;;
21420;SDS011;10871;50.144;8.428;2024-01-15T14:28:27;8.63;;;4.22;;
21420;SDS011;10871;50.144;8.428;2024-01-15T14:30:54;11.57;;;4.63;;
21420;SDS011;10871;50.144;8.428;2024-01-15T14:33:24;8.27;;;4.03;;
21420;SDS011;10871;50.144;8.428;2024-01-15T14:35:52;8.98;;;4.18;;